createdAt,value
2023-04-09T00:00:34.361Z,6.49
2023-04-09T00:01:34.426Z,6.72
2023-04-09T00:02:34.417Z,6.35
2023-04-09T00:03:34.562Z,6.73
2023-04-09T00:04:34.448Z,6.71
2023-04-09T00:05:34.432Z,6.68
2023-04-09T00:06:34.435Z,6.73
2023-04-09T00:07:34.464Z,6.66
2023-04-09T00:08:34.478Z,6.37
2023-04-09T00:09:34.500Z,6.53
2023-04-09T00:10:34.480Z,6.40
2023-04-09T00:11:34.515Z,6.51
2023-04-09T00:12:34.548Z,6.32
2023-04-09T00:13:39.044Z,6.46
2023-04-09T00:14:35.533Z,6.46
2023-04-09T00:15:34.497Z,6.49
2023-04-09T00:16:34.540Z,6.50
2023-04-09T00:17:34.504Z,6.49
2023-04-09T00:18:34.462Z,6.52
2023-04-09T00:19:34.424Z,6.28
2023-04-09T00:20:34.402Z,6.35
2023-04-09T00:21:34.393Z,6.22
2023-04-09T00:22:34.356Z,6.34
2023-04-09T00:23:34.343Z,6.38
2023-04-09T00:24:34.322Z,6.40
2023-04-09T00:25:34.292Z,6.25
2023-04-09T00:26:34.283Z,6.39
2023-04-09T00:27:34.254Z,6.44
2023-04-09T00:28:34.238Z,6.28
2023-04-09T00:29:34.219Z,6.32
2023-04-09T00:30:34.178Z,6.43
2023-04-09T00:31:34.218Z,6.01
2023-04-09T00:32:34.220Z,6.21
2023-04-09T00:33:34.228Z,6.05
2023-04-09T00:34:34.250Z,6.05
2023-04-09T00:35:34.323Z,6.31
2023-04-09T00:36:34.278Z,6.26
2023-04-09T00:37:34.293Z,6.24
2023-04-09T00:38:34.297Z,6.18
2023-04-09T00:39:34.320Z,6.18
2023-04-09T00:40:34.341Z,6.32
2023-04-09T00:41:34.349Z,6.33
2023-04-09T00:42:34.361Z,6.23
2023-04-09T00:43:34.388Z,6.23
2023-04-09T00:44:34.424Z,6.21
2023-04-09T00:45:34.469Z,5.95
2023-04-09T00:46:34.432Z,6.25
2023-04-09T00:47:34.473Z,6.03
2023-04-09T00:48:34.457Z,6.20
2023-04-09T00:49:34.475Z,6.01
2023-04-09T00:50:34.474Z,6.02
2023-04-09T00:51:34.488Z,5.96
2023-04-09T00:52:34.521Z,6.13
2023-04-09T00:53:34.511Z,6.01
2023-04-09T00:54:34.538Z,5.99
2023-04-09T00:55:34.565Z,5.80
2023-04-09T00:56:34.559Z,6.10
2023-04-09T00:57:34.600Z,6.05
2023-04-09T00:58:34.608Z,6.13
2023-04-09T00:59:34.635Z,6.14
2023-04-09T01:00:34.636Z,6.01
2023-04-09T01:01:34.733Z,5.89
2023-04-09T01:02:34.919Z,5.94
2023-04-09T01:03:34.891Z,5.93
2023-04-09T01:04:34.698Z,5.92
2023-04-09T01:05:34.717Z,5.90
2023-04-09T01:06:34.707Z,5.92
2023-04-09T01:07:34.730Z,5.85
2023-04-09T01:08:34.736Z,5.89
2023-04-09T01:09:34.752Z,5.75
2023-04-09T01:10:34.791Z,5.97
2023-04-09T01:11:34.773Z,5.85
2023-04-09T01:12:34.803Z,5.81
2023-04-09T01:13:34.804Z,5.58
2023-04-09T01:14:34.832Z,5.64
2023-04-09T01:15:34.844Z,5.95
2023-04-09T01:16:34.884Z,5.83
2023-04-09T01:17:34.956Z,5.72
2023-04-09T01:18:34.883Z,5.65
2023-04-09T01:19:34.893Z,5.84
2023-04-09T01:20:34.914Z,5.62
2023-04-09T01:21:34.932Z,5.85
2023-04-09T01:22:34.956Z,5.82
2023-04-09T01:23:34.985Z,5.68
2023-04-09T01:24:35.019Z,5.82
2023-04-09T01:25:35.030Z,5.67
2023-04-09T01:26:35.048Z,5.75
2023-04-09T01:27:35.026Z,5.75
2023-04-09T01:28:35.010Z,5.76
2023-04-09T01:29:34.988Z,5.77
2023-04-09T01:30:35.074Z,5.72
2023-04-09T01:31:34.951Z,5.69
2023-04-09T01:32:35.029Z,5.94
2023-04-09T01:33:34.912Z,5.76
2023-04-09T01:34:34.897Z,5.68
2023-04-09T01:35:34.897Z,5.68
2023-04-09T01:36:34.850Z,5.76
2023-04-09T01:37:34.846Z,5.67
2023-04-09T01:38:34.804Z,5.67
2023-04-09T01:39:34.806Z,5.62
2023-04-09T01:40:34.765Z,5.70
2023-04-09T01:41:34.766Z,5.62
2023-04-09T01:42:34.780Z,5.58
2023-04-09T01:43:34.804Z,5.62
2023-04-09T01:44:34.817Z,5.66
2023-04-09T01:45:34.856Z,5.50
2023-04-09T01:46:34.934Z,5.59
2023-04-09T01:47:34.927Z,5.51
2023-04-09T01:48:34.906Z,5.59
2023-04-09T01:49:34.913Z,5.65
2023-04-09T01:50:34.964Z,5.49
2023-04-09T01:51:34.977Z,5.53
2023-04-09T01:52:34.969Z,5.61
2023-04-09T01:53:35.002Z,5.51
2023-04-09T01:54:35.020Z,5.61
2023-04-09T01:55:35.066Z,5.57
2023-04-09T01:56:35.076Z,5.64
2023-04-09T01:57:35.068Z,5.56
2023-04-09T01:58:35.094Z,5.57
2023-04-09T01:59:35.110Z,5.59
2023-04-09T02:00:35.129Z,5.49
2023-04-09T02:01:35.212Z,5.44
2023-04-09T02:02:35.326Z,5.44
2023-04-09T02:03:35.221Z,5.44
2023-04-09T02:04:35.200Z,5.49
2023-04-09T02:05:35.246Z,5.40
2023-04-09T02:06:35.261Z,5.16
2023-04-09T02:07:35.267Z,5.39
2023-04-09T02:08:35.312Z,5.39
2023-04-09T02:09:35.313Z,5.39
2023-04-09T02:10:35.357Z,5.31
2023-04-09T02:11:35.362Z,5.36
2023-04-09T02:12:35.393Z,5.37
2023-04-09T02:13:35.412Z,5.36
2023-04-09T02:14:35.433Z,5.32
2023-04-09T02:15:35.465Z,5.35
2023-04-09T02:16:35.456Z,5.32
2023-04-09T02:17:35.486Z,5.23
2023-04-09T02:18:35.515Z,5.34
2023-04-09T02:19:35.512Z,5.30
2023-04-09T02:20:35.549Z,5.19
2023-04-09T02:21:35.561Z,5.24
2023-04-09T02:22:35.560Z,5.14
2023-04-09T02:23:35.579Z,5.26
2023-04-09T02:24:35.617Z,5.14
2023-04-09T02:25:35.630Z,5.19
2023-04-09T02:26:35.647Z,5.18
2023-04-09T02:27:35.655Z,5.01
2023-04-09T02:28:35.706Z,5.18
2023-04-09T02:29:35.729Z,5.10
2023-04-09T02:30:35.738Z,5.20
2023-04-09T02:31:35.836Z,5.22
2023-04-09T02:32:35.804Z,5.17
2023-04-09T02:33:35.815Z,5.23
2023-04-09T02:34:35.778Z,5.17
2023-04-09T02:35:35.804Z,5.24
2023-04-09T02:36:35.722Z,5.22
2023-04-09T02:37:35.699Z,5.17
2023-04-09T02:38:35.673Z,5.14
2023-04-09T02:39:35.645Z,5.15
2023-04-09T02:40:35.626Z,5.19
2023-04-09T02:41:35.585Z,5.08
2023-04-09T02:42:35.570Z,5.12
2023-04-09T02:43:35.532Z,5.11
2023-04-09T02:44:35.517Z,4.99
2023-04-09T02:45:35.478Z,4.67
2023-04-09T02:46:35.530Z,4.22
2023-04-09T02:47:35.511Z,4.12
2023-04-09T02:48:35.528Z,3.62
2023-04-09T02:49:35.553Z,3.10
2023-04-09T02:50:35.609Z,2.58
2023-04-09T02:51:35.644Z,2.19
2023-04-09T02:52:35.661Z,1.87
2023-04-09T02:53:35.700Z,1.63
2023-04-09T02:54:35.721Z,1.39
2023-04-09T02:55:35.753Z,1.18
2023-04-09T02:56:35.776Z,1.05
2023-04-09T02:57:35.802Z,0.95
2023-04-09T02:58:35.845Z,0.84
2023-04-09T02:59:35.827Z,0.74
2023-04-09T03:00:35.904Z,0.69
2023-04-09T03:01:36.064Z,0.63
2023-04-09T03:02:36.092Z,0.58
2023-04-09T03:03:35.990Z,0.53
2023-04-09T03:04:35.965Z,0.50
2023-04-09T03:05:35.975Z,0.50
2023-04-09T03:06:35.979Z,0.50
2023-04-09T03:07:35.993Z,0.50
2023-04-09T03:08:35.996Z,0.50
2023-04-09T03:09:36.056Z,0.50
2023-04-09T03:10:36.012Z,0.50
2023-04-09T03:11:36.059Z,0.50
2023-04-09T03:12:36.044Z,0.50
2023-04-09T03:13:36.052Z,0.51
2023-04-09T03:14:36.096Z,0.50
2023-04-09T03:15:36.115Z,0.51
2023-04-09T03:16:36.089Z,0.50
2023-04-09T03:17:36.102Z,0.48
2023-04-09T03:18:36.037Z,0.46
2023-04-09T03:19:36.032Z,0.44
2023-04-09T03:20:36.009Z,0.44
2023-04-09T03:21:36.010Z,0.43
2023-04-09T03:22:35.978Z,0.41
2023-04-09T03:23:35.968Z,0.40
2023-04-09T03:24:35.960Z,0.39
2023-04-09T03:25:35.944Z,0.38
2023-04-09T03:26:35.954Z,0.45
2023-04-09T03:27:35.922Z,0.50
2023-04-09T03:28:35.923Z,0.51
2023-04-09T03:29:35.930Z,0.51
2023-04-09T03:30:35.898Z,0.51
2023-04-09T03:31:35.958Z,0.50
2023-04-09T03:32:35.944Z,0.50
2023-04-09T03:33:35.881Z,0.51
2023-04-09T03:34:35.856Z,0.51
2023-04-09T03:35:35.878Z,0.50
2023-04-09T03:36:35.831Z,0.50
2023-04-09T03:37:35.871Z,0.51
2023-04-09T03:38:35.893Z,0.51
2023-04-09T03:39:35.927Z,0.50
2023-04-09T03:40:35.976Z,0.50
2023-04-09T03:41:36.003Z,0.50
2023-04-09T03:42:36.056Z,0.50
2023-04-09T03:43:36.081Z,0.50
2023-04-09T03:44:36.137Z,0.50
2023-04-09T03:45:36.144Z,0.50
2023-04-09T03:46:36.273Z,0.50
2023-04-09T03:47:36.255Z,0.50
2023-04-09T03:48:36.254Z,0.50
2023-04-09T03:49:36.276Z,0.50
2023-04-09T03:50:36.345Z,0.51
2023-04-09T03:51:36.362Z,0.50
2023-04-09T03:52:36.383Z,0.50
2023-04-09T03:53:36.452Z,0.51
2023-04-09T03:54:36.491Z,0.50
2023-04-09T03:55:36.528Z,0.50
2023-04-09T03:56:36.565Z,0.51
2023-04-09T03:57:36.605Z,0.50
2023-04-09T03:58:36.642Z,0.51
2023-04-09T03:59:36.694Z,0.50
2023-04-09T04:00:36.751Z,0.51
2023-04-09T04:01:36.865Z,0.51
2023-04-09T04:02:36.980Z,0.50
2023-04-09T04:03:37.118Z,0.53
2023-04-09T04:04:37.000Z,0.52
2023-04-09T04:05:36.971Z,0.51
2023-04-09T04:06:37.073Z,0.52
2023-04-09T04:07:37.041Z,0.51
2023-04-09T04:08:37.024Z,0.51
2023-04-09T04:09:37.016Z,0.51
2023-04-09T04:10:37.006Z,0.50
2023-04-09T04:11:36.987Z,0.50
2023-04-09T04:12:36.981Z,0.50
2023-04-09T04:13:36.972Z,0.50
2023-04-09T04:14:36.947Z,0.50
2023-04-09T04:15:36.978Z,0.51
2023-04-09T04:16:37.071Z,0.52
2023-04-09T04:17:37.180Z,0.50
2023-04-09T04:18:37.147Z,0.52
2023-04-09T04:19:37.178Z,0.51
2023-04-09T04:20:37.237Z,0.52
2023-04-09T04:21:37.297Z,0.51
2023-04-09T04:22:37.356Z,0.51
2023-04-09T04:23:37.418Z,0.50
2023-04-09T04:24:37.473Z,0.52
2023-04-09T04:25:37.517Z,0.52
2023-04-09T04:26:37.588Z,0.52
2023-04-09T04:27:37.623Z,0.52
2023-04-09T04:28:37.686Z,0.51
2023-04-09T04:29:37.767Z,0.52
2023-04-09T04:30:37.758Z,0.50
2023-04-09T04:31:37.859Z,0.50
2023-04-09T04:32:37.893Z,0.52
2023-04-09T04:33:37.908Z,0.52
2023-04-09T04:34:37.941Z,0.52
2023-04-09T04:35:38.013Z,0.51
2023-04-09T04:36:38.000Z,0.52
2023-04-09T04:37:38.044Z,0.51
2023-04-09T04:38:38.098Z,0.51
2023-04-09T04:39:38.144Z,0.51
2023-04-09T04:40:38.186Z,0.52
2023-04-09T04:41:38.259Z,0.51
2023-04-09T04:42:38.300Z,0.51
2023-04-09T04:43:38.332Z,0.52
2023-04-09T04:44:38.410Z,0.53
2023-04-09T04:45:38.480Z,0.52
2023-04-09T04:46:38.526Z,0.53
2023-04-09T04:47:38.556Z,0.52
2023-04-09T04:48:38.561Z,0.53
2023-04-09T04:49:38.581Z,0.53
2023-04-09T04:50:38.616Z,0.53
2023-04-09T04:51:38.635Z,0.53
2023-04-09T04:52:38.673Z,0.53
2023-04-09T04:53:38.700Z,0.53
2023-04-09T04:54:38.723Z,0.54
2023-04-09T04:55:38.717Z,0.54
2023-04-09T04:56:38.729Z,0.54
2023-04-09T04:57:38.701Z,0.54
2023-04-09T04:58:38.695Z,0.56
2023-04-09T04:59:38.680Z,0.56
2023-04-09T05:00:38.672Z,0.56
2023-04-09T05:01:38.724Z,0.56
2023-04-09T05:02:38.760Z,0.56
2023-04-09T05:03:38.677Z,0.55
2023-04-09T05:04:38.650Z,0.56
2023-04-09T05:05:38.629Z,0.56
2023-04-09T05:06:38.624Z,0.56
2023-04-09T05:07:38.613Z,0.56
2023-04-09T05:08:38.605Z,0.56
2023-04-09T05:09:38.635Z,0.57
2023-04-09T05:10:38.596Z,0.58
2023-04-09T05:11:38.587Z,0.57
2023-04-09T05:12:38.589Z,0.58
2023-04-09T05:13:38.560Z,0.59
2023-04-09T05:14:38.552Z,0.60
2023-04-09T05:15:38.541Z,0.60
2023-04-09T05:16:38.554Z,0.60
2023-04-09T05:17:38.584Z,0.58
2023-04-09T05:18:38.525Z,0.59
2023-04-09T05:19:38.532Z,0.60
2023-04-09T05:20:38.517Z,0.59
2023-04-09T05:21:38.507Z,0.60
2023-04-09T05:22:38.532Z,0.61
2023-04-09T05:23:38.558Z,0.61
2023-04-09T05:24:38.580Z,0.59
2023-04-09T05:25:38.629Z,0.60
2023-04-09T05:26:38.680Z,0.61
2023-04-09T05:27:38.741Z,0.61
2023-04-09T05:28:38.799Z,0.59
2023-04-09T05:29:38.875Z,0.60
2023-04-09T05:30:38.966Z,0.61
2023-04-09T05:31:38.961Z,0.61
2023-04-09T05:32:39.041Z,0.59
2023-04-09T05:33:39.032Z,0.60
2023-04-09T05:34:39.042Z,0.60
2023-04-09T05:35:39.090Z,0.61
2023-04-09T05:36:39.088Z,0.60
2023-04-09T05:37:39.131Z,0.60
2023-04-09T05:38:39.108Z,0.62
2023-04-09T05:39:39.125Z,0.62
2023-04-09T05:40:39.176Z,0.61
2023-04-09T05:41:39.292Z,0.61
2023-04-09T05:42:39.249Z,0.61
2023-04-09T05:43:39.201Z,0.61
2023-04-09T05:44:39.266Z,0.61
2023-04-09T05:45:39.341Z,0.61
2023-04-09T05:46:39.221Z,0.60
2023-04-09T05:47:39.282Z,0.60
2023-04-09T05:48:39.232Z,0.61
2023-04-09T05:49:39.253Z,0.59
2023-04-09T05:50:53.446Z,0.61
2023-04-09T05:51:40.248Z,0.61
2023-04-09T05:52:39.297Z,0.61
2023-04-09T05:53:39.231Z,0.59
2023-04-09T05:54:39.229Z,0.60
2023-04-09T05:55:39.243Z,0.59
2023-04-09T05:56:39.220Z,0.60
2023-04-09T05:57:39.325Z,0.59
2023-04-09T05:58:39.200Z,0.58
2023-04-09T05:59:39.203Z,0.58
2023-04-09T06:00:39.164Z,0.58
2023-04-09T06:01:39.194Z,0.57
2023-04-09T06:02:39.197Z,0.56
2023-04-09T06:03:39.226Z,0.56
2023-04-09T06:04:39.182Z,0.55
2023-04-09T06:05:39.137Z,0.54
2023-04-09T06:06:39.145Z,0.55
2023-04-09T06:07:39.123Z,0.54
2023-04-09T06:08:39.115Z,0.54
2023-04-09T06:09:39.096Z,0.56
2023-04-09T06:10:40.456Z,0.54
2023-04-09T06:11:39.112Z,0.54
2023-04-09T06:12:39.088Z,0.55
2023-04-09T06:13:39.088Z,0.55
2023-04-09T06:14:39.096Z,0.55
2023-04-09T06:15:39.086Z,0.55
2023-04-09T06:16:39.057Z,0.55
2023-04-09T06:17:39.091Z,0.56
2023-04-09T06:18:39.064Z,0.56
2023-04-09T06:19:39.053Z,0.57
2023-04-09T06:20:39.030Z,0.58
2023-04-09T06:21:39.054Z,0.58
2023-04-09T06:22:39.093Z,0.60
2023-04-09T06:23:39.005Z,0.60
2023-04-09T06:24:38.988Z,0.59
2023-04-09T06:25:38.995Z,0.61
2023-04-09T06:26:38.999Z,0.62
2023-04-09T06:27:39.009Z,0.62
2023-04-09T06:28:39.018Z,0.63
2023-04-09T06:29:39.019Z,0.63
2023-04-09T06:30:38.997Z,0.64
2023-04-09T06:31:39.058Z,0.65
2023-04-09T06:32:47.300Z,0.65
2023-04-09T06:33:40.005Z,0.65
2023-04-09T06:34:38.986Z,0.65
2023-04-09T06:35:38.996Z,0.65
2023-04-09T06:36:38.966Z,0.66
2023-04-09T06:37:38.932Z,0.66
2023-04-09T06:38:38.945Z,0.65
2023-04-09T06:39:42.569Z,0.65
2023-04-09T06:40:39.911Z,0.65
2023-04-09T06:41:38.924Z,0.66
2023-04-09T06:42:38.895Z,0.66
2023-04-09T06:43:38.904Z,0.68
2023-04-09T06:44:38.876Z,0.70
2023-04-09T06:45:40.969Z,0.71
2023-04-09T06:46:39.006Z,0.72
2023-04-09T06:47:38.875Z,0.73
2023-04-09T06:48:38.799Z,0.74
2023-04-09T06:49:38.808Z,0.74
2023-04-09T06:50:38.783Z,0.77
2023-04-09T06:51:38.759Z,0.76
2023-04-09T06:52:38.727Z,0.76
2023-04-09T06:53:38.905Z,0.78
2023-04-09T06:54:38.700Z,0.80
2023-04-09T06:55:38.744Z,0.79
2023-04-09T06:56:38.675Z,0.81
2023-04-09T06:57:38.693Z,0.84
2023-04-09T06:58:38.657Z,0.84
2023-04-09T06:59:38.926Z,0.88
2023-04-09T07:00:38.676Z,0.87
2023-04-09T07:01:38.700Z,0.89
2023-04-09T07:02:38.789Z,0.89
2023-04-09T07:03:38.788Z,0.91
2023-04-09T07:04:38.846Z,0.94
2023-04-09T07:05:38.672Z,0.93
2023-04-09T07:06:38.703Z,0.92
2023-04-09T07:07:38.705Z,0.95
2023-04-09T07:08:38.714Z,0.94
2023-04-09T07:09:38.724Z,0.97
2023-04-09T07:10:38.707Z,0.98
2023-04-09T07:11:38.738Z,0.99
2023-04-09T07:12:38.743Z,0.96
2023-04-09T07:13:38.745Z,0.97
2023-04-09T07:14:38.720Z,1.00
2023-04-09T07:15:40.095Z,1.03
2023-04-09T07:16:38.786Z,1.00
2023-04-09T07:17:38.743Z,1.02
2023-04-09T07:18:38.735Z,1.02
2023-04-09T07:19:38.700Z,1.03
2023-04-09T07:20:38.693Z,1.00
2023-04-09T07:21:38.686Z,1.03
2023-04-09T07:22:38.676Z,1.05
2023-04-09T07:23:38.711Z,1.02
2023-04-09T07:24:38.655Z,1.03
2023-04-09T07:25:38.638Z,1.05
2023-04-09T07:26:38.628Z,1.03
2023-04-09T07:27:38.638Z,1.02
2023-04-09T07:28:38.613Z,1.03
2023-04-09T07:29:38.595Z,1.04
2023-04-09T07:30:38.595Z,1.05
2023-04-09T07:31:38.596Z,1.03
2023-04-09T07:32:38.594Z,1.02
2023-04-09T07:33:38.577Z,1.03
2023-04-09T07:34:38.549Z,1.04
2023-04-09T07:35:38.544Z,1.03
2023-04-09T07:36:38.520Z,1.00
2023-04-09T07:37:38.507Z,1.00
2023-04-09T07:38:38.500Z,1.04
2023-04-09T07:39:38.477Z,1.03
2023-04-09T07:40:38.474Z,1.02
2023-04-09T07:41:38.461Z,1.03
2023-04-09T07:42:38.456Z,1.01
2023-04-09T07:43:38.481Z,0.99
2023-04-09T07:44:38.430Z,1.03
2023-04-09T07:45:38.407Z,1.04
2023-04-09T07:46:38.486Z,1.04
2023-04-09T07:47:38.398Z,1.08
2023-04-09T07:48:38.404Z,1.07
2023-04-09T07:49:38.365Z,1.06
2023-04-09T07:50:38.363Z,1.07
2023-04-09T07:51:38.347Z,1.05
2023-04-09T07:52:38.341Z,1.08
2023-04-09T07:53:38.341Z,1.06
2023-04-09T07:54:38.349Z,1.08
2023-04-09T07:55:38.303Z,1.03
2023-04-09T07:56:38.288Z,1.05
2023-04-09T07:57:38.264Z,1.05
2023-04-09T07:58:38.260Z,1.04
2023-04-09T07:59:38.262Z,1.05
2023-04-09T08:00:38.240Z,1.03
2023-04-09T08:01:38.290Z,1.04
2023-04-09T08:02:38.360Z,1.05
2023-04-09T08:03:38.437Z,1.02
2023-04-09T08:04:38.354Z,1.06
2023-04-09T08:05:38.186Z,1.07
2023-04-09T08:06:38.167Z,1.06
2023-04-09T08:07:38.138Z,1.05
2023-04-09T08:08:38.156Z,1.08
2023-04-09T08:09:38.120Z,1.04
2023-04-09T08:10:38.122Z,1.06
2023-04-09T08:11:38.104Z,1.05
2023-04-09T08:12:38.098Z,1.06
2023-04-09T08:13:38.106Z,1.07
2023-04-09T08:14:38.085Z,1.10
2023-04-09T08:15:38.062Z,1.08
2023-04-09T08:16:38.107Z,1.06
2023-04-09T08:17:38.074Z,1.07
2023-04-09T08:18:38.054Z,1.06
2023-04-09T08:19:39.850Z,1.06
2023-04-09T08:20:37.990Z,1.09
2023-04-09T08:21:37.995Z,1.07
2023-04-09T08:22:37.974Z,1.09
2023-04-09T08:23:37.969Z,1.05
2023-04-09T08:24:37.977Z,1.07
2023-04-09T08:25:37.929Z,1.05
2023-04-09T08:26:37.920Z,1.07
2023-04-09T08:27:37.928Z,1.02
2023-04-09T08:28:37.901Z,1.03
2023-04-09T08:29:37.940Z,1.05
2023-04-09T08:30:37.885Z,1.03
2023-04-09T08:31:37.960Z,1.04
2023-04-09T08:32:37.889Z,1.05
2023-04-09T08:33:37.876Z,1.04
2023-04-09T08:34:37.837Z,1.03
2023-04-09T08:35:37.836Z,1.02
2023-04-09T08:36:37.864Z,1.02
2023-04-09T08:37:37.794Z,1.00
2023-04-09T08:38:37.785Z,1.03
2023-04-09T08:39:37.775Z,1.04
2023-04-09T08:40:37.770Z,1.01
2023-04-09T08:41:37.756Z,1.02
2023-04-09T08:42:37.732Z,1.02
2023-04-09T08:43:53.237Z,1.03
2023-04-09T08:44:38.712Z,1.03
2023-04-09T08:45:37.718Z,1.04
2023-04-09T08:46:37.703Z,1.10
2023-04-09T08:47:37.731Z,1.25
2023-04-09T08:48:37.794Z,1.48
2023-04-09T08:49:37.665Z,1.54
2023-04-09T08:50:37.673Z,1.72
2023-04-09T08:51:37.656Z,1.89
2023-04-09T08:52:37.625Z,2.02
2023-04-09T08:53:37.614Z,2.18
2023-04-09T08:54:37.650Z,2.36
2023-04-09T08:55:37.597Z,2.51
2023-04-09T08:56:37.582Z,2.67
2023-04-09T08:57:37.568Z,2.79
2023-04-09T08:58:37.554Z,2.96
2023-04-09T08:59:37.559Z,3.10
2023-04-09T09:00:37.626Z,3.32
2023-04-09T09:01:37.699Z,3.51
2023-04-09T09:02:37.764Z,3.58
2023-04-09T09:03:37.747Z,3.77
2023-04-09T09:04:37.757Z,3.91
2023-04-09T09:05:37.805Z,4.06
2023-04-09T09:06:37.834Z,4.31
2023-04-09T09:07:37.874Z,4.49
2023-04-09T09:08:37.945Z,4.58
2023-04-09T09:09:37.968Z,4.77
2023-04-09T09:10:38.009Z,4.91
2023-04-09T09:11:38.058Z,5.06
2023-04-09T09:12:38.112Z,5.26
2023-04-09T09:13:38.129Z,5.37
2023-04-09T09:14:38.179Z,5.63
2023-04-09T09:15:38.228Z,5.77
2023-04-09T09:16:38.287Z,6.05
2023-04-09T09:17:38.341Z,6.10
2023-04-09T09:18:38.319Z,6.19
2023-04-09T09:19:38.340Z,6.41
2023-04-09T09:20:38.367Z,6.60
2023-04-09T09:21:38.392Z,6.75
2023-04-09T09:22:38.409Z,6.90
2023-04-09T09:23:38.424Z,7.09
2023-04-09T09:24:38.438Z,7.23
2023-04-09T09:25:38.445Z,7.36
2023-04-09T09:26:38.460Z,7.56
2023-04-09T09:27:38.474Z,7.57
2023-04-09T09:28:38.497Z,7.95
2023-04-09T09:29:38.503Z,8.02
2023-04-09T09:30:38.576Z,8.21
2023-04-09T09:31:38.551Z,8.34
2023-04-09T09:32:38.618Z,8.41
2023-04-09T09:33:38.628Z,8.67
2023-04-09T09:34:38.639Z,8.81
2023-04-09T09:35:38.687Z,8.81
2023-04-09T09:36:38.714Z,8.97
2023-04-09T09:37:38.752Z,9.12
2023-04-09T09:38:38.765Z,9.30
2023-04-09T09:39:38.809Z,9.36
2023-04-09T09:40:38.812Z,9.75
2023-04-09T09:41:38.855Z,9.70
2023-04-09T09:42:38.890Z,9.80
2023-04-09T09:43:38.905Z,9.72
2023-04-09T09:44:38.927Z,10.09
2023-04-09T09:45:38.948Z,10.13
2023-04-09T09:46:39.015Z,10.33
2023-04-09T09:47:39.057Z,10.38
2023-04-09T09:48:38.999Z,10.38
2023-04-09T09:49:39.030Z,10.73
2023-04-09T09:50:39.047Z,10.68
2023-04-09T09:51:39.063Z,10.90
2023-04-09T09:52:39.061Z,11.03
2023-04-09T09:53:39.105Z,11.13
2023-04-09T09:54:39.084Z,11.27
2023-04-09T09:55:39.112Z,11.30
2023-04-09T09:56:39.137Z,11.32
2023-04-09T09:57:39.128Z,11.27
2023-04-09T09:58:39.143Z,11.39
2023-04-09T09:59:39.175Z,11.71
2023-04-09T10:00:39.199Z,11.73
2023-04-09T10:01:39.230Z,11.79
2023-04-09T10:02:39.296Z,11.87
2023-04-09T10:03:39.244Z,11.71
2023-04-09T10:04:39.274Z,11.78
2023-04-09T10:05:39.276Z,12.10
2023-04-09T10:06:39.282Z,12.06
2023-04-09T10:07:39.281Z,11.74
2023-04-09T10:08:39.294Z,12.13
2023-04-09T10:09:39.304Z,12.26
2023-04-09T10:10:39.335Z,12.09
2023-04-09T10:11:39.317Z,12.24
2023-04-09T10:12:39.322Z,12.16
2023-04-09T10:13:39.325Z,11.90
2023-04-09T10:14:39.340Z,12.46
2023-04-09T10:15:39.365Z,12.46
2023-04-09T10:16:39.345Z,12.47
2023-04-09T10:17:39.370Z,12.03
2023-04-09T10:18:39.358Z,12.46
2023-04-09T10:19:39.372Z,12.71
2023-04-09T10:20:39.377Z,12.52
2023-04-09T10:21:39.887Z,12.23
2023-04-09T10:22:39.388Z,12.02
2023-04-09T10:23:39.370Z,12.78
2023-04-09T10:24:39.370Z,12.58
2023-04-09T10:25:39.372Z,12.73
2023-04-09T10:26:39.346Z,12.73
2023-04-09T10:27:39.316Z,12.75
2023-04-09T10:28:39.302Z,12.80
2023-04-09T10:29:39.269Z,12.74
2023-04-09T10:30:39.240Z,12.77
2023-04-09T10:31:39.308Z,12.95
2023-04-09T10:32:39.205Z,12.87
2023-04-09T10:33:39.170Z,12.90
2023-04-09T10:34:39.163Z,13.40
2023-04-09T10:35:39.172Z,12.89
2023-04-09T10:36:39.100Z,12.92
2023-04-09T10:37:39.080Z,12.93
2023-04-09T10:38:39.043Z,13.06
2023-04-09T10:39:39.021Z,13.44
2023-04-09T10:40:38.993Z,13.55
2023-04-09T10:41:38.981Z,13.25
2023-04-09T10:42:38.936Z,13.12
2023-04-09T10:43:38.933Z,13.51
2023-04-09T10:44:38.889Z,13.58
2023-04-09T10:45:38.860Z,12.69
2023-04-09T10:46:38.904Z,13.51
2023-04-09T10:47:38.817Z,13.39
2023-04-09T10:48:38.769Z,13.55
2023-04-09T10:49:38.749Z,13.30
2023-04-09T10:50:38.721Z,13.33
2023-04-09T10:51:38.718Z,13.47
2023-04-09T10:52:38.669Z,13.14
2023-04-09T10:53:38.646Z,13.50
2023-04-09T10:54:38.613Z,13.37
2023-04-09T10:55:38.616Z,13.78
2023-04-09T10:56:38.564Z,13.47
2023-04-09T10:57:38.535Z,13.41
2023-04-09T10:58:38.505Z,13.61
2023-04-09T10:59:38.461Z,13.43
2023-04-09T11:00:38.480Z,13.16
2023-04-09T11:01:38.548Z,13.31
2023-04-09T11:02:38.619Z,13.47
2023-04-09T11:03:38.462Z,13.35
2023-04-09T11:04:38.470Z,13.70
2023-04-09T11:05:38.509Z,13.31
2023-04-09T11:06:38.458Z,13.27
2023-04-09T11:07:38.509Z,13.77
2023-04-09T11:08:38.553Z,13.38
2023-04-09T11:09:38.494Z,13.33
2023-04-09T11:10:38.535Z,13.51
2023-04-09T11:11:38.492Z,13.52
2023-04-09T11:12:38.453Z,13.59
2023-04-09T11:13:38.413Z,13.61
2023-04-09T11:14:38.390Z,13.56
2023-04-09T11:15:38.361Z,13.80
2023-04-09T11:16:38.339Z,13.92
2023-04-09T11:17:38.286Z,13.76
2023-04-09T11:18:38.243Z,13.78
2023-04-09T11:19:38.225Z,13.63
2023-04-09T11:20:38.223Z,13.81
2023-04-09T11:21:38.259Z,13.36
2023-04-09T11:22:38.279Z,13.49
2023-04-09T11:23:38.306Z,13.52
2023-04-09T11:24:38.348Z,13.68
2023-04-09T11:25:38.385Z,14.19
2023-04-09T11:26:38.422Z,13.93
2023-04-09T11:27:38.436Z,13.95
2023-04-09T11:28:38.501Z,13.78
2023-04-09T11:29:38.552Z,14.07
2023-04-09T11:30:38.555Z,13.77
2023-04-09T11:31:38.695Z,13.45
2023-04-09T11:32:38.726Z,13.85
2023-04-09T11:33:38.653Z,13.96
2023-04-09T11:34:38.681Z,13.83
2023-04-09T11:35:38.746Z,13.74
2023-04-09T11:36:38.744Z,13.36
2023-04-09T11:37:38.771Z,13.49
2023-04-09T11:38:38.789Z,13.75
2023-04-09T11:39:38.814Z,13.55
2023-04-09T11:40:38.829Z,13.56
2023-04-09T11:41:38.878Z,13.67
2023-04-09T11:42:38.941Z,13.87
2023-04-09T11:43:38.927Z,13.23
2023-04-09T11:44:38.951Z,13.51
2023-04-09T11:45:38.999Z,13.21
2023-04-09T11:46:39.100Z,13.13
2023-04-09T11:47:39.058Z,13.70
2023-04-09T11:48:39.050Z,13.33
2023-04-09T11:49:39.084Z,13.56
2023-04-09T11:50:39.108Z,13.18
2023-04-09T11:51:39.117Z,13.34
2023-04-09T11:52:39.112Z,13.34
2023-04-09T11:53:39.149Z,13.22
2023-04-09T11:54:39.131Z,13.33
2023-04-09T11:55:39.158Z,13.21
2023-04-09T11:56:39.162Z,13.25
2023-04-09T11:57:39.139Z,13.25
2023-04-09T11:58:39.144Z,13.32
2023-04-09T11:59:39.131Z,13.19
2023-04-09T12:00:39.157Z,13.40
2023-04-09T12:01:39.230Z,13.17
2023-04-09T12:02:39.211Z,12.91
2023-04-09T12:03:39.208Z,13.18
2023-04-09T12:04:39.279Z,13.55
2023-04-09T12:05:41.216Z,13.36
2023-04-09T12:06:39.127Z,13.74
2023-04-09T12:07:39.599Z,13.45
2023-04-09T12:08:39.042Z,13.46
2023-04-09T12:09:39.010Z,13.48
2023-04-09T12:10:38.986Z,13.51
2023-04-09T12:11:38.959Z,13.56
2023-04-09T12:12:38.900Z,13.41
2023-04-09T12:13:38.869Z,13.67
2023-04-09T12:14:38.832Z,13.40
2023-04-09T12:15:38.780Z,13.44
2023-04-09T12:16:38.804Z,13.41
2023-04-09T12:17:38.723Z,13.65
2023-04-09T12:18:38.669Z,13.50
2023-04-09T12:19:38.629Z,13.79
2023-04-09T12:20:38.608Z,13.58
2023-04-09T12:21:38.575Z,13.37
2023-04-09T12:22:38.564Z,13.39
2023-04-09T12:23:38.487Z,13.39
2023-04-09T12:24:38.491Z,13.39
2023-04-09T12:25:38.442Z,13.45
2023-04-09T12:26:38.404Z,13.42
2023-04-09T12:27:38.359Z,13.52
2023-04-09T12:28:38.318Z,13.77
2023-04-09T12:29:38.274Z,13.49
2023-04-09T12:30:38.254Z,13.78
2023-04-09T12:31:38.235Z,13.74
2023-04-09T12:32:38.213Z,13.62
2023-04-09T12:33:38.136Z,13.70
2023-04-09T12:34:38.113Z,13.74
2023-04-09T12:35:38.367Z,13.40
2023-04-09T12:36:38.032Z,13.58
2023-04-09T12:37:38.003Z,13.58
2023-04-09T12:38:37.983Z,13.57
2023-04-09T12:39:37.944Z,13.37
2023-04-09T12:40:37.893Z,13.37
2023-04-09T12:41:37.860Z,13.38
2023-04-09T12:42:37.842Z,13.39
2023-04-09T12:43:37.802Z,13.47
2023-04-09T12:44:37.762Z,13.53
2023-04-09T12:45:37.745Z,13.47
2023-04-09T12:46:37.711Z,13.19
2023-04-09T12:47:37.758Z,13.43
2023-04-09T12:48:37.635Z,13.63
2023-04-09T12:49:37.592Z,13.34
2023-04-09T12:50:37.568Z,13.08
2023-04-09T12:51:37.546Z,13.39
2023-04-09T12:52:37.498Z,13.05
2023-04-09T12:53:37.446Z,13.40
2023-04-09T12:54:37.420Z,13.14
2023-04-09T12:55:37.393Z,13.18
2023-04-09T12:56:37.371Z,13.01
2023-04-09T12:57:37.350Z,13.18
2023-04-09T12:58:37.300Z,13.26
2023-04-09T12:59:37.285Z,13.02
2023-04-09T13:00:37.283Z,12.87
2023-04-09T13:01:37.323Z,13.17
2023-04-09T13:02:37.407Z,12.87
2023-04-09T13:03:37.598Z,13.00
2023-04-09T13:04:37.497Z,12.88
2023-04-09T13:05:37.259Z,12.79
2023-04-09T13:06:37.267Z,13.03
2023-04-09T13:07:37.271Z,12.94
2023-04-09T13:08:37.258Z,13.04
2023-04-09T13:09:37.258Z,13.00
2023-04-09T13:10:37.261Z,12.92
2023-04-09T13:11:37.261Z,12.83